Time;durP1;ratioP1;P1;durP2;ratioP2;P2;SDS_P1;SDS_P2;PMS_P1;PMS_P2;Temp;Humidity;BMP_temperature;BMP_pressure;BME280_temperature;BME280_humidity;BME280_pressure;Samples;Min_cycle;Max_cycle;Signal;HPM_P1;HPM_P2
2023/12/04 00:02:17;;;;;;;0.85;0.43;;;;;;;34.76;nan;98392.81;7392438;19;20480;-54
2023/12/04 00:04:43;;;;;;;0.38;0.38;;;;;;;34.71;nan;98394.09;7391443;19;20010;-53
2023/12/04 00:07:09;;;;;;;0.45;0.45;;;;;;;34.54;nan;98383.50;7393737;19;20015;-52
2023/12/04 00:09:36;;;;;;;2.22;1.23;;;;;;;34.42;nan;98374.44;7393796;19;20010;-52
2023/12/04 00:12:02;;;;;;;1.75;0.75;;;;;;;34.38;nan;98377.22;7392922;19;20011;-52
2023/12/04 00:14:28;;;;;;;2.17;1.13;;;;;;;34.24;nan;98366.00;7391482;19;20033;-52
2023/12/04 00:16:54;;;;;;;0.30;0.30;;;;;;;34.15;nan;98365.00;7392199;19;20025;-52
2023/12/04 00:19:20;;;;;;;0.95;0.45;;;;;;;33.97;nan;98355.75;7393901;19;20043;-52
2023/12/04 00:21:47;;;;;;;0.60;0.60;;;;;;;34.09;nan;98359.03;7392510;19;20021;-54
2023/12/04 00:24:13;;;;;;;4.28;1.40;;;;;;;34.19;nan;98344.91;7390357;19;20044;-53
2023/12/04 00:26:39;;;;;;;0.25;0.25;;;;;;;34.11;nan;98341.75;7391367;19;20006;-52
2023/12/04 00:29:05;;;;;;;0.75;0.70;;;;;;;32.69;nan;98344.25;7392017;19;20007;-53
2023/12/04 00:31:31;;;;;;;0.40;0.40;;;;;;;32.14;nan;98343.63;7399393;19;20029;-52
2023/12/04 00:33:57;;;;;;;0.40;0.40;;;;;;;32.07;nan;98339.06;7398271;19;20014;-53
2023/12/04 00:36:23;;;;;;;0.32;0.28;;;;;;;32.02;nan;98335.28;7399218;19;20018;-53
2023/12/04 00:38:50;;;;;;;0.30;0.30;;;;;;;31.95;nan;98322.06;7400063;19;20011;-53
2023/12/04 00:41:16;;;;;;;2.08;0.50;;;;;;;31.97;nan;98316.38;7398664;19;20043;-53
2023/12/04 00:43:42;;;;;;;0.30;0.30;;;;;;;31.96;nan;98317.03;7399701;19;20018;-52
2023/12/04 00:46:08;;;;;;;0.20;0.20;;;;;;;31.78;nan;98310.56;7399484;19;20026;-52
2023/12/04 00:48:34;;;;;;;0.25;0.25;;;;;;;31.77;nan;98311.97;7398884;19;20015;-53
2023/12/04 00:51:00;;;;;;;0.20;0.20;;;;;;;31.85;nan;98312.28;7396991;19;20014;-53
2023/12/04 00:53:26;;;;;;;0.20;0.20;;;;;;;31.78;nan;98301.91;7398405;19;20018;-53
2023/12/04 00:55:53;;;;;;;0.38;0.38;;;;;;;31.74;nan;98304.63;7399922;19;20018;-52
2023/12/04 00:58:19;;;;;;;0.90;0.55;;;;;;;31.68;nan;98296.53;7398093;19;20018;-52
2023/12/04 01:00:45;;;;;;;0.52;0.52;;;;;;;31.67;nan;98288.53;7398437;19;20070;-51
2023/12/04 01:03:11;;;;;;;0.30;0.30;;;;;;;31.62;nan;98286.91;7397190;19;20022;-54
2023/12/04 01:05:37;;;;;;;0.32;0.32;;;;;;;31.54;nan;98272.94;7398662;19;20025;-52
2023/12/04 01:08:03;;;;;;;1.08;0.47;;;;;;;31.62;nan;98287.63;7398572;19;20363;-52
2023/12/04 01:10:29;;;;;;;0.10;0.10;;;;;;;31.85;nan;98283.47;7401611;19;20018;-52
2023/12/04 01:12:55;;;;;;;0.22;0.22;;;;;;;31.96;nan;98279.59;7397866;19;20037;-52
2023/12/04 01:15:23;;;;;;;0.55;0.55;;;;;;;32.07;nan;98278.56;7399251;19;20055;-52
2023/12/04 01:17:49;;;;;;;0.10;0.10;;;;;;;32.11;nan;98281.59;7398155;19;20021;-52
2023/12/04 01:20:16;;;;;;;0.70;0.70;;;;;;;32.15;nan;98264.47;7398286;19;20058;-51
2023/12/04 01:22:42;;;;;;;0.10;0.10;;;;;;;32.16;nan;98257.31;7396049;19;20014;-52
2023/12/04 01:25:09;;;;;;;0.30;0.30;;;;;;;32.12;nan;98257.13;7398714;19;20095;-52
2023/12/04 01:27:37;;;;;;;0.10;0.10;;;;;;;32.20;nan;98245.91;7396883;19;20006;-52
2023/12/04 01:30:05;;;;;;;0.35;0.35;;;;;;;32.20;nan;98245.91;7397633;19;20478;-52
2023/12/04 01:32:31;;;;;;;0.10;0.10;;;;;;;32.22;nan;98245.25;7397402;19;20015;-52
2023/12/04 01:34:57;;;;;;;0.95;0.80;;;;;;;32.24;nan;98245.31;7397644;19;20015;-51
2023/12/04 01:37:23;;;;;;;0.40;0.40;;;;;;;32.11;nan;98235.50;7396478;19;20378;-51
2023/12/04 01:39:50;;;;;;;0.10;0.10;;;;;;;31.87;nan;98228.84;7399418;19;20343;-52
2023/12/04 01:42:16;;;;;;;0.10;0.10;;;;;;;31.91;nan;98240.50;7396415;19;20010;-51
2023/12/04 01:44:42;;;;;;;0.30;0.30;;;;;;;31.87;nan;98223.06;7396308;19;20038;-51
2023/12/04 01:47:08;;;;;;;0.10;0.10;;;;;;;32.03;nan;98217.94;7401462;19;20011;-52
2023/12/04 01:49:35;;;;;;;0.15;0.15;;;;;;;31.98;nan;98217.06;7395763;19;20038;-52
2023/12/04 01:52:02;;;;;;;0.22;0.22;;;;;;;32.07;nan;98210.19;7396422;19;20010;-52
2023/12/04 01:54:30;;;;;;;0.28;0.28;;;;;;;32.07;nan;98215.19;7395269;19;20360;-52
2023/12/04 01:56:56;;;;;;;0.10;0.10;;;;;;;31.94;nan;98214.03;7398624;19;20014;-51
2023/12/04 01:59:22;;;;;;;1.65;0.38;;;;;;;31.88;nan;98205.13;7396947;19;20014;-52
2023/12/04 02:01:49;;;;;;;0.55;0.35;;;;;;;31.80;nan;98201.94;7396515;19;20022;-51
2023/12/04 02:04:15;;;;;;;7.43;0.65;;;;;;;31.82;nan;98202.03;7394876;19;20018;-51
2023/12/04 02:06:41;;;;;;;0.20;0.20;;;;;;;31.85;nan;98199.97;7399517;19;20025;-52
2023/12/04 02:09:11;;;;;;;0.10;0.10;;;;;;;31.94;nan;98193.88;7399183;19;20014;-51
2023/12/04 02:11:39;;;;;;;0.30;0.30;;;;;;;31.89;nan;98191.47;7395588;19;20011;-51
2023/12/04 02:14:05;;;;;;;0.10;0.10;;;;;;;31.85;nan;98188.44;7396038;19;20015;-51
2023/12/04 02:16:38;;;;;;;0.20;0.20;;;;;;;31.68;nan;98189.25;7399577;19;20469;-53
2023/12/04 02:19:05;;;;;;;0.20;0.20;;;;;;;31.62;nan;98194.78;7396424;19;20007;-52
2023/12/04 02:21:31;;;;;;;0.40;0.40;;;;;;;31.60;nan;98188.97;7395364;19;20467;-53
2023/12/04 02:23:57;;;;;;;0.30;0.30;;;;;;;31.66;nan;98183.44;7394692;19;20010;-52
2023/12/04 02:26:31;;;;;;;0.20;0.20;;;;;;;31.53;nan;98187.25;7398499;19;20014;-53
2023/12/04 02:29:00;;;;;;;0.30;0.30;;;;;;;31.43;nan;98173.94;7395937;19;20027;-53
2023/12/04 02:31:29;;;;;;;0.10;0.10;;;;;;;31.56;nan;98174.41;7396600;19;20492;-52
2023/12/04 02:33:56;;;;;;;0.10;0.10;;;;;;;31.67;nan;98161.84;7396317;19;20106;-52
2023/12/04 02:36:24;;;;;;;1.85;0.55;;;;;;;31.51;nan;98167.03;7399976;19;20014;-52
2023/12/04 02:38:51;;;;;;;0.38;0.38;;;;;;;31.51;nan;98156.28;7396903;19;20010;-53
2023/12/04 02:41:17;;;;;;;0.30;0.30;;;;;;;31.48;nan;98162.59;7396883;19;20018;-53
2023/12/04 02:43:43;;;;;;;0.73;0.65;;;;;;;31.30;nan;98153.97;7395114;19;20018;-52
2023/12/04 02:46:10;;;;;;;0.20;0.20;;;;;;;31.13;nan;98146.88;7397814;19;20499;-52
2023/12/04 02:48:36;;;;;;;0.40;0.35;;;;;;;31.27;nan;98150.28;7394612;19;20019;-52
2023/12/04 02:51:03;;;;;;;0.45;0.45;;;;;;;26.66;nan;98148.28;7394836;19;20034;-53
2023/12/04 02:53:29;;;;;;;0.68;0.40;;;;;;;25.85;nan;98144.97;7392779;19;20014;-53
2023/12/04 02:55:55;;;;;;;0.15;0.15;;;;;;;25.78;nan;98143.84;7396527;19;20010;-52
2023/12/04 02:58:21;;;;;;;0.77;0.60;;;;;;;25.60;nan;98147.72;7393867;19;20013;-51
2023/12/04 03:00:48;;;;;;;0.40;0.38;;;;;;;25.52;nan;98128.75;7393290;19;20479;-53
2023/12/04 03:03:14;;;;;;;0.20;0.20;;;;;;;25.28;nan;98143.59;7391507;19;20019;-53
2023/12/04 03:05:40;;;;;;;0.30;0.30;;;;;;;24.50;nan;98139.34;7393052;19;20022;-53
2023/12/04 03:08:06;;;;;;;0.22;0.22;;;;;;;24.26;nan;98129.22;7394516;19;20021;-52
2023/12/04 03:10:32;;;;;;;0.32;0.32;;;;;;;24.31;nan;98128.88;7398404;19;20014;-52
2023/12/04 03:12:59;;;;;;;0.60;0.43;;;;;;;24.46;nan;98124.84;7394401;19;20073;-53
2023/12/04 03:15:28;;;;;;;0.30;0.30;;;;;;;24.44;nan;98127.56;7393780;19;20463;-52
2023/12/04 03:17:55;;;;;;;0.30;0.30;;;;;;;24.38;nan;98112.94;7394001;19;20026;-52
2023/12/04 03:20:21;;;;;;;0.20;0.20;;;;;;;25.35;nan;98109.16;7392986;19;20069;-52
2023/12/04 03:22:47;;;;;;;0.55;0.43;;;;;;;26.65;nan;98094.66;7393165;19;20074;-53
2023/12/04 03:25:13;;;;;;;0.15;0.15;;;;;;;25.04;nan;98102.94;7393997;19;20015;-52
2023/12/04 03:27:39;;;;;;;0.68;0.50;;;;;;;21.38;nan;98100.09;7392514;19;20019;-52
2023/12/04 03:30:06;;;;;;;0.40;0.40;;;;;;;19.46;nan;98104.50;7393847;19;20055;-52
2023/12/04 03:32:32;;;;;;;0.68;0.38;;;;;;;19.35;nan;98092.94;7392722;19;20459;-52
2023/12/04 03:34:58;;;;;;;0.40;0.40;;;;;;;18.38;nan;98089.47;7394050;19;20018;-52
2023/12/04 03:37:24;;;;;;;0.25;0.25;;;;;;;18.09;nan;98089.03;7395084;19;20018;-52
2023/12/04 03:39:51;;;;;;;0.95;0.57;;;;;;;19.80;nan;98080.44;7396579;19;20007;-52
2023/12/04 03:42:17;;;;;;;0.30;0.30;;;;;;;19.93;nan;98082.91;7393217;19;20358;-52
2023/12/04 03:44:43;;;;;;;0.30;0.30;;;;;;;20.17;nan;98070.75;7392372;19;20038;-52
2023/12/04 03:47:09;;;;;;;1.08;1.00;;;;;;;20.29;nan;98057.63;7393076;19;20007;-52
2023/12/04 03:49:35;;;;;;;0.50;0.50;;;;;;;21.62;nan;98065.13;7395978;19;20011;-52
2023/12/04 03:52:01;;;;;;;0.47;0.47;;;;;;;19.89;nan;98076.94;7394685;19;20078;-52
2023/12/04 03:54:27;;;;;;;1.05;0.95;;;;;;;19.22;nan;98071.38;7392973;19;20014;-53
2023/12/04 03:56:53;;;;;;;0.20;0.20;;;;;;;18.79;nan;98067.03;7393863;19;20070;-52
2023/12/04 03:59:20;;;;;;;0.10;0.10;;;;;;;17.99;nan;98049.47;7392589;19;20015;-52
2023/12/04 04:01:46;;;;;;;0.20;0.20;;;;;;;17.57;nan;98059.72;7395379;19;20019;-52
2023/12/04 04:04:12;;;;;;;0.20;0.20;;;;;;;16.92;nan;98053.03;7390630;19;20015;-52
2023/12/04 04:06:38;;;;;;;0.90;0.20;;;;;;;16.79;nan;98044.78;7399388;19;20014;-52
2023/12/04 04:09:05;;;;;;;0.20;0.20;;;;;;;16.49;nan;98050.34;7403512;19;20015;-52
2023/12/04 04:11:31;;;;;;;0.20;0.20;;;;;;;16.76;nan;98039.56;7398680;19;20010;-52
2023/12/04 04:13:57;;;;;;;0.28;0.28;;;;;;;16.20;nan;98052.53;7401935;19;20015;-52
2023/12/04 04:16:24;;;;;;;0.20;0.20;;;;;;;15.17;nan;98045.31;7399616;19;20010;-52
2023/12/04 04:18:50;;;;;;;0.63;0.40;;;;;;;16.02;nan;98036.00;7399377;19;20057;-51
2023/12/04 04:21:16;;;;;;;1.17;0.40;;;;;;;17.06;nan;98039.53;7397951;19;20015;-51
2023/12/04 04:23:42;;;;;;;0.45;0.32;;;;;;;17.13;nan;98047.22;7397223;19;20404;-51
2023/12/04 04:26:08;;;;;;;0.13;0.13;;;;;;;15.76;nan;98037.06;7402772;19;20020;-51
2023/12/04 04:28:34;;;;;;;0.20;0.20;;;;;;;16.20;nan;98035.69;7403579;19;20015;-52
2023/12/04 04:31:00;;;;;;;0.22;0.22;;;;;;;16.51;nan;98036.53;7399609;19;20018;-52
2023/12/04 04:33:27;;;;;;;0.20;0.20;;;;;;;16.60;nan;98033.16;7399954;19;20062;-51
2023/12/04 04:35:53;;;;;;;0.20;0.20;;;;;;;15.28;nan;98041.44;7398380;19;20383;-51
2023/12/04 04:38:19;;;;;;;0.63;0.32;;;;;;;14.85;nan;98039.28;7402150;19;20035;-52
2023/12/04 04:40:45;;;;;;;0.17;0.17;;;;;;;15.46;nan;98025.69;7398925;19;20010;-51
2023/12/04 04:43:11;;;;;;;0.35;0.35;;;;;;;15.14;nan;98034.41;7397734;19;20471;-51
2023/12/04 04:45:38;;;;;;;0.10;0.10;;;;;;;15.26;nan;98018.06;7398765;19;20007;-51
2023/12/04 04:48:04;;;;;;;0.20;0.20;;;;;;;15.79;nan;98019.84;7398629;19;20451;-51
2023/12/04 04:50:30;;;;;;;0.20;0.20;;;;;;;15.76;nan;98014.59;7401399;19;20014;-51
2023/12/04 04:52:56;;;;;;;0.10;0.10;;;;;;;15.96;nan;98005.28;7398800;19;20356;-51
2023/12/04 04:55:22;;;;;;;0.38;0.20;;;;;;;15.66;nan;98005.19;7398436;19;20014;-51
2023/12/04 04:57:48;;;;;;;0.10;0.10;;;;;;;15.22;nan;98006.44;7401830;19;20030;-51
2023/12/04 05:00:16;;;;;;;0.10;0.03;;;;;;;15.38;nan;98000.34;7397880;19;20010;-51
2023/12/04 05:02:42;;;;;;;1.20;0.30;;;;;;;16.00;nan;97999.31;7400705;19;20010;-51
2023/12/04 05:05:08;;;;;;;0.28;0.20;;;;;;;16.64;nan;98000.56;7397616;19;20466;-51
2023/12/04 05:07:34;;;;;;;0.10;0.10;;;;;;;16.53;nan;97995.31;7398363;19;20014;-51
2023/12/04 05:10:00;;;;;;;0.90;0.90;;;;;;;16.90;nan;97991.00;7402028;19;20017;-51
2023/12/04 05:12:26;;;;;;;0.30;0.30;;;;;;;17.10;nan;97989.28;7399476;19;20079;-51
2023/12/04 05:14:52;;;;;;;0.90;0.57;;;;;;;17.73;nan;97999.25;7397992;19;20078;-51
2023/12/04 05:17:18;;;;;;;1.30;0.43;;;;;;;16.99;nan;97995.28;7396897;19;20010;-52
2023/12/04 05:19:45;;;;;;;0.57;0.57;;;;;;;16.91;nan;97994.56;7397745;19;20011;-51
2023/12/04 05:22:11;;;;;;;0.25;0.15;;;;;;;16.83;nan;97991.75;7398356;19;20022;-51
2023/12/04 05:24:37;;;;;;;0.40;0.30;;;;;;;16.88;nan;97995.69;7396972;19;20022;-50
2023/12/04 05:27:03;;;;;;;0.45;0.32;;;;;;;16.90;nan;97993.81;7398037;19;20010;-51
2023/12/04 05:29:29;;;;;;;0.25;0.25;;;;;;;17.04;nan;98003.56;7397227;19;20015;-51
2023/12/04 05:31:57;;;;;;;0.10;0.10;;;;;;;16.99;nan;97986.84;7397315;19;20078;-51
2023/12/04 05:34:23;;;;;;;0.10;0.10;;;;;;;16.93;nan;97983.50;7396595;19;20070;-51
2023/12/04 05:36:49;;;;;;;0.10;0.10;;;;;;;17.13;nan;97976.91;7399110;19;20470;-51
2023/12/04 05:39:15;;;;;;;0.32;0.32;;;;;;;16.95;nan;97980.88;7397428;19;20022;-50
2023/12/04 05:41:42;;;;;;;0.30;0.30;;;;;;;16.97;nan;97979.00;7395906;19;20010;-50
2023/12/04 05:44:08;;;;;;;0.50;0.28;;;;;;;17.23;nan;97975.75;7393553;19;20030;-50
2023/12/04 05:46:34;;;;;;;0.28;0.28;;;;;;;18.10;nan;97975.75;7395827;19;20014;-51
2023/12/04 05:49:00;;;;;;;0.25;0.25;;;;;;;18.61;nan;97971.66;7399933;19;20015;-51
2023/12/04 05:51:26;;;;;;;0.30;0.20;;;;;;;18.82;nan;97969.22;7395004;19;20007;-51
2023/12/04 05:53:52;;;;;;;0.20;0.20;;;;;;;18.78;nan;97966.81;7396841;19;20013;-50
2023/12/04 05:56:18;;;;;;;0.30;0.30;;;;;;;18.17;nan;97972.16;7395274;19;20014;-51
2023/12/04 05:58:44;;;;;;;0.10;0.10;;;;;;;18.43;nan;97962.38;7396559;19;20015;-51
2023/12/04 06:01:10;;;;;;;0.30;0.30;;;;;;;18.22;nan;97952.78;7397809;19;20010;-51
2023/12/04 06:03:36;;;;;;;0.40;0.40;;;;;;;19.38;nan;97950.66;7394847;19;20025;-51
2023/12/04 06:06:03;;;;;;;0.65;0.65;;;;;;;19.15;nan;97950.84;7396446;19;20014;-51
2023/12/04 06:08:29;;;;;;;0.20;0.20;;;;;;;18.92;nan;97945.47;7397282;19;20033;-50
2023/12/04 06:10:56;;;;;;;0.40;0.40;;;;;;;20.79;nan;97927.88;7395191;19;20015;-50
2023/12/04 06:13:22;;;;;;;0.40;0.40;;;;;;;21.65;nan;97925.09;7398365;19;20463;-51
2023/12/04 06:15:48;;;;;;;0.10;0.10;;;;;;;21.07;nan;97922.28;7395701;19;20035;-51
2023/12/04 06:18:14;;;;;;;0.22;0.22;;;;;;;19.97;nan;97931.41;7394542;19;20070;-50
2023/12/04 06:20:40;;;;;;;0.73;0.73;;;;;;;19.66;nan;97925.41;7393990;19;20455;-50
2023/12/04 06:23:06;;;;;;;0.43;0.43;;;;;;;19.34;nan;97917.16;7395016;19;20006;-50
2023/12/04 06:25:33;;;;;;;0.30;0.30;;;;;;;19.42;nan;97920.66;7398517;19;20007;-50
2023/12/04 06:27:59;;;;;;;2.35;0.30;;;;;;;19.45;nan;97927.94;7395068;19;20007;-50
2023/12/04 06:30:26;;;;;;;0.25;0.22;;;;;;;20.71;nan;97915.94;7395607;19;20070;-50
2023/12/04 06:32:53;;;;;;;0.25;0.25;;;;;;;21.56;nan;97912.44;7395816;19;20034;-50
2023/12/04 06:35:19;;;;;;;0.47;0.30;;;;;;;21.65;nan;97913.78;7398177;19;20018;-50
2023/12/04 06:37:47;;;;;;;0.40;0.40;;;;;;;21.77;nan;97912.56;7395222;19;20026;-50
2023/12/04 06:40:13;;;;;;;0.40;0.40;;;;;;;21.38;nan;97907.53;7394669;19;20746;-50
2023/12/04 06:42:40;;;;;;;0.77;0.32;;;;;;;20.45;nan;97899.78;7394894;19;20022;-50
2023/12/04 06:45:07;;;;;;;0.10;0.10;;;;;;;20.06;nan;97902.44;7395066;19;20021;-50
2023/12/04 06:47:34;;;;;;;0.10;0.10;;;;;;;19.02;nan;97914.50;7397777;19;20023;-50
2023/12/04 06:50:00;;;;;;;0.20;0.20;;;;;;;18.74;nan;97900.88;7393716;19;20010;-50
2023/12/04 06:52:26;;;;;;;0.45;0.40;;;;;;;18.73;nan;97902.22;7394380;19;20478;-50
2023/12/04 06:54:53;;;;;;;0.32;0.32;;;;;;;18.71;nan;97910.50;7394537;19;20010;-50
2023/12/04 06:57:19;;;;;;;0.22;0.22;;;;;;;18.18;nan;97903.22;7396161;19;20034;-50
2023/12/04 06:59:46;;;;;;;0.32;0.32;;;;;;;18.12;nan;97899.88;7396698;19;20750;-50
2023/12/04 07:02:12;;;;;;;0.10;0.10;;;;;;;17.72;nan;97904.81;7393544;19;20015;-51
2023/12/04 07:04:39;;;;;;;0.75;0.75;;;;;;;17.85;nan;97904.56;7391624;19;20025;-50
2023/12/04 07:07:06;;;;;;;0.10;0.10;;;;;;;19.58;nan;97901.44;7394093;19;20031;-50
2023/12/04 07:09:33;;;;;;;0.28;0.20;;;;;;;18.87;nan;97903.38;7397218;19;20007;-51
2023/12/04 07:12:00;;;;;;;1.10;0.40;;;;;;;18.41;nan;97902.28;7397619;19;20019;-50
2023/12/04 07:14:26;;;;;;;0.75;0.57;;;;;;;18.48;nan;97901.50;7392295;19;20070;-51
2023/12/04 07:16:52;;;;;;;6.03;0.68;;;;;;;18.39;nan;97904.91;7391059;19;20473;-51
2023/12/04 07:19:19;;;;;;;0.30;0.30;;;;;;;18.69;nan;97899.06;7391968;19;20010;-51
2023/12/04 07:21:46;;;;;;;0.45;0.30;;;;;;;19.76;nan;97899.31;7391613;19;20468;-50
2023/12/04 07:24:12;;;;;;;0.57;0.57;;;;;;;19.41;nan;97904.28;7395671;19;20023;-50
2023/12/04 07:26:38;;;;;;;0.40;0.40;;;;;;;17.95;nan;97901.88;7393873;19;20010;-50
2023/12/04 07:29:04;;;;;;;0.80;0.80;;;;;;;17.75;nan;97906.50;7392823;19;20006;-50
2023/12/04 07:31:30;;;;;;;0.20;0.20;;;;;;;17.43;nan;97903.66;7391986;19;20021;-50
2023/12/04 07:33:57;;;;;;;12.45;1.38;;;;;;;17.50;nan;97908.50;7392110;19;20042;-51
2023/12/04 07:36:24;;;;;;;2.10;0.65;;;;;;;18.31;nan;97898.59;7397010;19;20014;-50
2023/12/04 07:38:50;;;;;;;0.30;0.30;;;;;;;17.95;nan;97901.88;7393340;19;20022;-50
2023/12/04 07:41:20;;;;;;;0.95;0.50;;;;;;;17.01;nan;97902.66;7393866;19;20049;-50
2023/12/04 07:43:46;;;;;;;2.30;0.57;;;;;;;16.02;nan;97902.00;7390857;19;20014;-50
2023/12/04 07:46:13;;;;;;;0.73;0.73;;;;;;;16.99;nan;97903.25;7394377;19;20026;-50
2023/12/04 07:48:40;;;;;;;0.30;0.30;;;;;;;15.31;nan;97905.69;7397033;19;20476;-50
2023/12/04 07:51:07;;;;;;;1.85;0.65;;;;;;;15.55;nan;97910.13;7397485;19;20348;-57
2023/12/04 07:53:33;;;;;;;0.60;0.25;;;;;;;15.94;nan;97906.84;7396710;19;20019;-57
2023/12/04 07:56:05;;;;;;;0.30;0.30;;;;;;;15.45;nan;97903.53;7396887;19;20447;-57
2023/12/04 07:58:32;;;;;;;0.35;0.35;;;;;;;15.39;nan;97902.94;7385910;19;20086;-58
2023/12/04 08:00:59;;;;;;;0.43;0.43;;;;;;;15.28;nan;97903.25;7391111;19;20133;-57
2023/12/04 08:03:25;;;;;;;1.20;0.57;;;;;;;16.88;nan;97905.69;7390707;19;20033;-58
2023/12/04 08:05:51;;;;;;;0.60;0.60;;;;;;;17.09;nan;97906.19;7393616;19;20011;-58
2023/12/04 08:08:18;;;;;;;0.10;0.10;;;;;;;17.83;nan;97907.22;7393144;19;20034;-58
2023/12/04 08:10:44;;;;;;;0.30;0.17;;;;;;;16.83;nan;97901.78;7390818;19;20356;-58
2023/12/04 08:13:10;;;;;;;2.35;0.82;;;;;;;16.16;nan;97900.50;7391464;19;20007;-58
2023/12/04 08:15:36;;;;;;;0.20;0.20;;;;;;;16.81;nan;97906.47;7390851;19;20010;-57
2023/12/04 08:18:02;;;;;;;0.80;0.45;;;;;;;16.83;nan;97898.25;7391993;19;20014;-58
2023/12/04 08:20:28;;;;;;;0.20;0.20;;;;;;;17.71;nan;97900.53;7392288;19;20033;-58
2023/12/04 08:22:55;;;;;;;0.40;0.40;;;;;;;18.05;nan;97892.22;7389829;19;20010;-58
2023/12/04 08:25:21;;;;;;;0.20;0.20;;;;;;;17.87;nan;97889.91;7392033;19;20485;-58
2023/12/04 08:27:49;;;;;;;0.13;0.13;;;;;;;17.28;nan;97893.19;7394791;19;20523;-58
2023/12/04 08:30:15;;;;;;;0.10;0.10;;;;;;;16.58;nan;97890.41;7391754;19;20019;-58
2023/12/04 08:32:41;;;;;;;0.45;0.45;;;;;;;16.59;nan;97886.25;7392661;19;20034;-58
2023/12/04 08:35:08;;;;;;;0.88;0.43;;;;;;;16.64;nan;97896.56;7391441;19;20027;-63
2023/12/04 08:37:34;;;;;;;0.20;0.20;;;;;;;17.17;nan;97887.97;7391548;19;20018;-63
2023/12/04 08:40:00;;;;;;;0.28;0.28;;;;;;;17.49;nan;97889.34;7392824;19;20014;-59
2023/12/04 08:42:26;;;;;;;0.30;0.30;;;;;;;17.26;nan;97893.00;7391993;19;20037;-58
2023/12/04 08:44:52;;;;;;;0.22;0.20;;;;;;;16.81;nan;97895.97;7388875;19;20343;-59
2023/12/04 08:47:18;;;;;;;1.88;0.57;;;;;;;17.44;nan;97893.88;7396553;19;20460;-58
2023/12/04 08:49:45;;;;;;;2.55;0.75;;;;;;;16.26;nan;97893.03;7392310;19;20070;-66
2023/12/04 08:52:11;;;;;;;0.40;0.40;;;;;;;16.22;nan;97892.63;7396463;19;20015;-59
2023/12/04 08:54:41;;;;;;;0.20;0.20;;;;;;;17.39;nan;97892.00;7398126;19;20085;-58
2023/12/04 08:57:08;;;;;;;0.20;0.20;;;;;;;26.26;nan;97872.75;7401816;19;20018;-58
2023/12/04 08:59:35;;;;;;;0.13;0.13;;;;;;;28.64;nan;97873.06;7397429;19;20355;-59
2023/12/04 09:02:04;;;;;;;0.10;0.10;;;;;;;30.29;nan;97879.16;7399660;19;20018;-59
2023/12/04 09:04:31;;;;;;;0.10;0.10;;;;;;;31.34;nan;97872.91;7396334;19;20070;-65
2023/12/04 09:06:58;;;;;;;0.45;0.22;;;;;;;32.70;nan;97875.72;7402074;19;20010;-58
2023/12/04 09:09:24;;;;;;;0.10;0.10;;;;;;;35.12;nan;97864.13;7401177;19;20021;-58
2023/12/04 09:11:50;;;;;;;1.20;0.50;;;;;;;35.89;nan;97866.16;7397762;19;20014;-59
2023/12/04 09:14:16;;;;;;;1.45;0.40;;;;;;;35.73;nan;97863.75;7397957;19;20015;-59
2023/12/04 09:16:43;;;;;;;0.80;0.32;;;;;;;34.87;nan;97868.00;7400861;19;20014;-59
2023/12/04 09:19:09;;;;;;;0.10;0.10;;;;;;;34.27;nan;97865.28;7397909;19;20010;-59
2023/12/04 09:21:35;;;;;;;1.20;0.68;;;;;;;34.22;nan;97863.72;7397688;19;20490;-59
2023/12/04 09:24:01;;;;;;;0.20;0.20;;;;;;;34.23;nan;97868.09;7395937;19;20035;-63
2023/12/04 09:26:27;;;;;;;0.30;0.30;;;;;;;33.97;nan;97866.75;7399812;19;20696;-59
2023/12/04 09:28:53;;;;;;;0.20;0.20;;;;;;;34.35;nan;97867.59;7397594;19;20048;-58
2023/12/04 09:31:19;;;;;;;0.10;0.10;;;;;;;34.50;nan;97865.75;7394750;19;20501;-59
2023/12/04 09:33:47;;;;;;;0.20;0.20;;;;;;;34.45;nan;97867.09;7396598;19;20014;-60
2023/12/04 09:36:13;;;;;;;0.30;0.30;;;;;;;34.85;nan;97876.59;7399512;19;20451;-59
2023/12/04 09:38:39;;;;;;;0.88;0.20;;;;;;;34.36;nan;97880.66;7396073;19;20078;-58
2023/12/04 09:41:06;;;;;;;0.10;0.10;;;;;;;34.22;nan;97878.19;7395448;19;20031;-59
2023/12/04 09:43:32;;;;;;;1.10;0.20;;;;;;;34.11;nan;97885.16;7395875;19;20011;-58
2023/12/04 09:45:59;;;;;;;0.85;0.85;;;;;;;34.01;nan;97875.53;7398697;19;20007;-59
2023/12/04 09:48:26;;;;;;;0.10;0.10;;;;;;;33.97;nan;97876.16;7396387;19;20018;-59
2023/12/04 09:50:53;;;;;;;0.10;0.10;;;;;;;34.16;nan;97886.72;7395261;19;20056;-59
2023/12/04 09:53:20;;;;;;;0.30;0.30;;;;;;;34.73;nan;97877.13;7395888;19;20494;-58
2023/12/04 09:55:49;;;;;;;0.38;0.38;;;;;;;34.65;nan;97873.34;7396378;19;20576;-58
2023/12/04 09:58:19;;;;;;;0.10;0.10;;;;;;;34.57;nan;97871.00;7400470;19;20383;-58
2023/12/04 10:00:46;;;;;;;0.90;0.30;;;;;;;34.77;nan;97873.56;7395649;19;20066;-58
2023/12/04 10:06:00;;;;;;;0.20;0.20;;;;;;;35.03;nan;97871.19;7395152;19;20021;-48
2023/12/04 10:08:26;;;;;;;0.40;0.40;;;;;;;35.00;nan;97869.69;7395314;19;20021;-48
2023/12/04 10:10:52;;;;;;;0.17;0.17;;;;;;;34.71;nan;97882.13;7393313;19;20010;-48
2023/12/04 10:13:18;;;;;;;0.10;0.10;;;;;;;34.53;nan;97873.06;7393856;19;20077;-48
2023/12/04 10:15:49;;;;;;;0.30;0.30;;;;;;;34.62;nan;97880.50;7392914;19;20010;-48
2023/12/04 10:18:30;;;;;;;3.15;0.80;;;;;;;34.70;nan;97874.84;7393856;19;20018;-48
2023/12/04 10:20:57;;;;;;;0.20;0.20;;;;;;;34.84;nan;97875.16;7394896;19;20017;-48
2023/12/04 10:23:42;;;;;;;0.28;0.28;;;;;;;34.65;nan;97882.00;7394373;19;20027;-48
2023/12/04 10:26:08;;;;;;;0.20;0.20;;;;;;;34.22;nan;97872.41;7397220;19;20010;-48
2023/12/04 10:28:35;;;;;;;0.20;0.20;;;;;;;34.19;nan;97873.06;7400232;19;20018;-48
2023/12/04 10:31:02;;;;;;;0.20;0.20;;;;;;;34.39;nan;97884.31;7395170;19;20006;-48
2023/12/04 10:33:31;;;;;;;0.20;0.20;;;;;;;34.44;nan;97874.31;7396199;19;20025;-48
2023/12/04 10:35:57;;;;;;;0.57;0.55;;;;;;;34.64;nan;97874.75;7396659;19;20487;-53
2023/12/04 10:38:25;;;;;;;0.32;0.30;;;;;;;36.39;nan;97869.06;7396055;19;20014;-53
2023/12/04 10:40:52;;;;;;;0.10;0.10;;;;;;;36.87;nan;97875.47;7395111;19;20018;-53
2023/12/04 10:43:20;;;;;;;1.00;0.32;;;;;;;37.16;nan;97868.56;7394498;19;20401;-53
2023/12/04 10:45:48;;;;;;;0.15;0.15;;;;;;;37.07;nan;97864.13;7396838;19;20011;-53
2023/12/04 10:48:16;;;;;;;1.05;0.35;;;;;;;37.24;nan;97865.00;7396478;19;20010;-53
2023/12/04 10:50:44;;;;;;;1.98;0.55;;;;;;;37.36;nan;97870.22;7395686;19;20459;-53
2023/12/04 10:53:12;;;;;;;0.20;0.20;;;;;;;35.93;nan;97872.00;7394749;19;20011;-53
2023/12/04 10:55:39;;;;;;;1.48;0.40;;;;;;;35.86;nan;97864.66;7395956;19;20015;-53
2023/12/04 10:58:14;;;;;;;0.35;0.25;;;;;;;35.88;nan;97863.97;7399225;19;20478;-53
2023/12/04 11:00:51;;;;;;;0.32;0.32;;;;;;;35.69;nan;97866.56;7394845;19;20015;-53
2023/12/04 11:03:27;;;;;;;0.20;0.20;;;;;;;35.73;nan;97863.75;7394361;19;20070;-53
2023/12/04 11:06:00;;;;;;;0.10;0.10;;;;;;;35.68;nan;97868.03;7396238;19;20081;-53
2023/12/04 11:08:30;;;;;;;0.10;0.10;;;;;;;35.61;nan;97869.34;7396824;19;20018;-53
2023/12/04 11:10:59;;;;;;;0.10;0.10;;;;;;;35.58;nan;97872.91;7395504;19;20018;-54
2023/12/04 11:13:30;;;;;;;2.63;0.50;;;;;;;35.74;nan;97867.38;7393862;19;20010;-53
2023/12/04 11:16:02;;;;;;;5.93;0.55;;;;;;;35.56;nan;97870.69;7395942;19;20482;-53
2023/12/04 11:18:31;;;;;;;0.22;0.22;;;;;;;35.59;nan;97874.38;7393947;19;20011;-53
2023/12/04 11:21:03;;;;;;;0.65;0.50;;;;;;;35.64;nan;97870.84;7391844;19;20526;-53
2023/12/04 11:23:32;;;;;;;0.15;0.15;;;;;;;35.83;nan;97862.44;7393306;19;20021;-53
2023/12/04 11:26:00;;;;;;;0.20;0.20;;;;;;;35.85;nan;97865.34;7392634;19;20007;-53
2023/12/04 11:28:28;;;;;;;0.38;0.38;;;;;;;35.72;nan;97861.53;7397761;19;20010;-48
2023/12/04 11:30:55;;;;;;;0.10;0.10;;;;;;;35.58;nan;97867.88;7392856;19;20653;-48
2023/12/04 11:33:21;;;;;;;0.10;0.10;;;;;;;35.48;nan;97867.69;7393037;19;20459;-48
2023/12/04 11:35:49;;;;;;;1.30;0.88;;;;;;;35.59;nan;97857.72;7393605;19;20011;-48
2023/12/04 11:38:19;;;;;;;0.20;0.20;;;;;;;35.40;nan;97864.63;7391426;19;20027;-48
2023/12/04 11:40:46;;;;;;;0.50;0.50;;;;;;;35.49;nan;97860.47;7393152;19;20018;-48
2023/12/04 11:43:26;;;;;;;0.38;0.38;;;;;;;35.73;nan;97865.91;7391654;19;20032;-48
2023/12/04 11:45:53;;;;;;;0.32;0.32;;;;;;;35.91;nan;97856.78;7392247;19;20021;-48
2023/12/04 11:48:25;;;;;;;0.20;0.20;;;;;;;35.52;nan;97853.25;7392669;19;20014;-48
2023/12/04 11:50:51;;;;;;;0.68;0.43;;;;;;;35.56;nan;97852.63;7391928;19;20015;-48
2023/12/04 11:53:17;;;;;;;0.20;0.20;;;;;;;35.43;nan;97856.72;7393228;19;20066;-48